createdAt,value
2023-01-18T00:01:19.489Z,52.70
2023-01-18T00:03:48.217Z,45.73
2023-01-18T00:06:17.992Z,47.93
2023-01-18T00:08:46.401Z,45.43
2023-01-18T00:11:19.016Z,46.30
2023-01-18T00:13:49.372Z,41.53
2023-01-18T00:16:19.721Z,48.43
2023-01-18T00:18:52.418Z,56.13
2023-01-18T00:21:20.830Z,42.10
2023-01-18T00:23:49.214Z,40.63
2023-01-18T00:26:17.519Z,49.90
2023-01-18T00:28:46.184Z,40.87
2023-01-18T00:31:17.742Z,57.40
2023-01-18T00:33:47.609Z,41.53
2023-01-18T00:36:16.959Z,43.20
2023-01-18T00:38:51.476Z,39.60
2023-01-18T00:41:19.894Z,39.60
2023-01-18T00:43:47.474Z,40.80
2023-01-18T00:46:18.838Z,38.53
2023-01-18T00:48:48.261Z,35.37
2023-01-18T00:51:19.183Z,35.90
2023-01-18T00:53:47.925Z,40.13
2023-01-18T00:56:18.748Z,38.80
2023-01-18T00:58:47.440Z,37.67
2023-01-18T01:01:18.539Z,33.80
2023-01-18T01:04:04.389Z,43.90
2023-01-18T01:06:47.158Z,39.73
2023-01-18T01:09:18.648Z,42.67
2023-01-18T01:12:02.914Z,41.67
2023-01-18T01:14:49.405Z,32.37
2023-01-18T01:17:36.862Z,36.20
2023-01-18T01:20:23.515Z,32.20
2023-01-18T01:23:08.998Z,34.83
2023-01-18T01:25:55.354Z,32.80
2023-01-18T01:28:23.710Z,43.40
2023-01-18T01:30:52.360Z,38.63
2023-01-18T01:33:22.121Z,41.23
2023-01-18T01:35:51.283Z,38.80
2023-01-18T01:38:19.657Z,44.63
2023-01-18T01:40:57.364Z,38.53
2023-01-18T01:43:41.720Z,35.77
2023-01-18T01:46:33.964Z,38.60
2023-01-18T01:49:10.839Z,33.70
2023-01-18T01:51:42.438Z,39.60
2023-01-18T01:54:16.495Z,39.13
2023-01-18T01:56:48.279Z,37.17
2023-01-18T01:59:18.856Z,39.40
2023-01-18T02:01:48.430Z,44.17
2023-01-18T02:04:18.459Z,38.37
2023-01-18T02:06:46.868Z,42.40
2023-01-18T02:09:16.854Z,41.37
2023-01-18T02:11:45.394Z,42.93
2023-01-18T02:14:16.849Z,53.47
2023-01-18T02:17:01.208Z,40.53
2023-01-18T02:20:11.676Z,43.10
2023-01-18T02:23:07.326Z,44.87
2023-01-18T02:25:55.436Z,45.37
2023-01-18T02:28:34.054Z,43.53
2023-01-18T02:31:12.107Z,47.67
2023-01-18T02:33:47.056Z,48.53
2023-01-18T02:36:27.495Z,50.27
2023-01-18T02:39:01.541Z,50.17
2023-01-18T02:41:39.192Z,49.90
2023-01-18T02:44:41.222Z,52.97
2023-01-18T02:47:11.315Z,58.50
2023-01-18T02:49:39.630Z,59.20
2023-01-18T02:52:09.420Z,50.03
2023-01-18T02:54:41.502Z,50.53
2023-01-18T02:57:14.589Z,53.00
2023-01-18T03:00:04.395Z,54.17
2023-01-18T03:02:32.782Z,56.27
2023-01-18T03:05:01.666Z,54.73
2023-01-18T03:07:34.044Z,50.30
2023-01-18T03:10:06.428Z,48.50
2023-01-18T03:12:47.090Z,50.93
2023-01-18T03:15:23.811Z,48.67
2023-01-18T03:17:55.464Z,49.53
2023-01-18T03:20:27.628Z,41.77
2023-01-18T03:23:20.033Z,46.87
2023-01-18T03:25:52.469Z,45.03
2023-01-18T03:28:43.316Z,40.53
2023-01-18T03:31:32.161Z,45.93
2023-01-18T03:34:05.092Z,48.43
2023-01-18T03:36:37.725Z,43.47
2023-01-18T03:39:08.612Z,45.80
2023-01-18T03:41:39.296Z,40.47
2023-01-18T03:44:12.957Z,48.27
2023-01-18T03:46:43.865Z,40.60
2023-01-18T03:49:13.914Z,40.17
2023-01-18T03:52:00.789Z,44.50
2023-01-18T03:54:36.021Z,47.57
2023-01-18T03:57:08.649Z,41.10
2023-01-18T03:59:40.385Z,39.97
2023-01-18T04:02:09.909Z,43.90
2023-01-18T04:04:38.294Z,42.20
2023-01-18T04:07:07.947Z,37.90
2023-01-18T04:09:36.238Z,41.57
2023-01-18T04:12:05.156Z,38.07
2023-01-18T04:14:33.463Z,40.43
2023-01-18T04:17:04.283Z,40.20
2023-01-18T04:19:32.598Z,39.73
2023-01-18T04:22:00.968Z,36.40
2023-01-18T04:24:29.538Z,37.60
2023-01-18T04:26:57.889Z,43.77
2023-01-18T04:29:26.191Z,46.70
2023-01-18T04:31:54.891Z,40.70
2023-01-18T04:34:24.643Z,42.23
2023-01-18T04:36:53.672Z,37.67
2023-01-18T04:39:22.336Z,35.13
2023-01-18T04:41:50.792Z,39.83
2023-01-18T04:44:19.151Z,36.03
2023-01-18T04:46:52.828Z,44.87
2023-01-18T04:49:21.358Z,36.67
2023-01-18T04:51:51.069Z,39.97
2023-01-18T04:54:20.063Z,40.30
2023-01-18T04:56:48.557Z,39.33
2023-01-18T04:59:17.951Z,37.50
2023-01-18T05:01:46.407Z,36.80
2023-01-18T05:04:14.840Z,36.60
2023-01-18T05:06:44.704Z,34.43
2023-01-18T05:09:14.564Z,35.10
2023-01-18T05:11:43.870Z,33.17
2023-01-18T05:14:12.237Z,30.40
2023-01-18T05:16:40.888Z,40.73
2023-01-18T05:19:09.513Z,33.27
2023-01-18T05:21:37.936Z,33.77
2023-01-18T05:24:06.674Z,39.00
2023-01-18T05:26:36.669Z,31.93
2023-01-18T05:29:04.994Z,36.03
2023-01-18T05:31:33.461Z,30.73
2023-01-18T05:34:02.502Z,36.80
2023-01-18T05:36:30.795Z,30.90
2023-01-18T05:38:59.183Z,33.43
2023-01-18T05:41:27.609Z,33.67
2023-01-18T05:43:57.291Z,43.90
2023-01-18T05:46:25.609Z,46.60
2023-01-18T05:48:58.397Z,40.07
2023-01-18T05:51:27.114Z,40.00
2023-01-18T05:53:55.505Z,39.73
2023-01-18T05:56:23.891Z,43.23
2023-01-18T05:58:52.450Z,33.77
2023-01-18T06:01:22.241Z,34.20
2023-01-18T06:03:50.703Z,34.80
2023-01-18T06:06:19.025Z,34.97
2023-01-18T06:08:47.402Z,38.53
2023-01-18T06:11:15.829Z,43.30
2023-01-18T06:13:44.239Z,30.73
2023-01-18T06:16:13.409Z,36.73
2023-01-18T06:18:43.106Z,34.53
2023-01-18T06:21:12.226Z,32.60
2023-01-18T06:23:40.571Z,39.87
2023-01-18T06:26:08.974Z,36.40
2023-01-18T06:28:37.355Z,35.70
2023-01-18T06:31:08.274Z,43.23
2023-01-18T06:33:36.690Z,39.20
2023-01-18T06:36:07.167Z,39.57
2023-01-18T06:38:35.550Z,35.90
2023-01-18T06:41:04.547Z,36.70
2023-01-18T06:43:32.973Z,36.37
2023-01-18T06:46:03.029Z,38.00
2023-01-18T06:48:31.525Z,39.93
2023-01-18T06:51:00.205Z,39.47
2023-01-18T06:53:30.635Z,38.07
2023-01-18T06:56:01.960Z,36.20
2023-01-18T06:58:32.835Z,41.50
2023-01-18T07:01:02.517Z,39.93
2023-01-18T07:03:32.156Z,41.17
2023-01-18T07:06:02.736Z,44.07
2023-01-18T07:08:33.015Z,36.07
2023-01-18T07:11:06.486Z,36.97
2023-01-18T07:13:35.432Z,42.53
2023-01-18T07:16:04.461Z,40.87
2023-01-18T07:18:33.062Z,40.20
2023-01-18T07:21:03.131Z,39.83
2023-01-18T07:23:32.907Z,38.73
2023-01-18T07:26:04.062Z,38.37
2023-01-18T07:28:33.282Z,36.17
2023-01-18T07:31:03.435Z,33.80
2023-01-18T07:33:32.023Z,38.57
2023-01-18T07:36:00.560Z,36.57
2023-01-18T07:38:31.082Z,37.17
2023-01-18T07:41:05.437Z,35.40
2023-01-18T07:43:35.312Z,36.87
2023-01-18T07:46:05.123Z,35.07
2023-01-18T07:48:34.538Z,34.63
2023-01-18T07:51:04.747Z,35.57
2023-01-18T07:53:34.879Z,34.57
2023-01-18T07:56:07.742Z,34.60
2023-01-18T07:58:36.898Z,37.33
2023-01-18T08:01:07.333Z,32.33
2023-01-18T08:03:36.391Z,33.47
2023-01-18T08:06:07.768Z,31.43
2023-01-18T08:08:37.115Z,33.40
2023-01-18T08:11:08.168Z,31.70
2023-01-18T08:13:36.993Z,34.43
2023-01-18T08:16:08.529Z,32.93
2023-01-18T08:18:37.022Z,31.33
2023-01-18T08:21:06.147Z,30.53
2023-01-18T08:23:34.546Z,36.53
2023-01-18T08:26:04.288Z,27.23
2023-01-18T08:28:34.417Z,24.63
2023-01-18T08:31:17.985Z,26.57
2023-01-18T08:33:48.791Z,30.50
2023-01-18T08:36:19.487Z,28.57
2023-01-18T08:38:49.368Z,27.97
2023-01-18T08:41:17.758Z,23.40
2023-01-18T08:43:51.079Z,24.07
2023-01-18T08:46:19.893Z,21.30
2023-01-18T08:48:50.765Z,23.40
2023-01-18T08:51:20.405Z,22.30
2023-01-18T08:53:49.708Z,26.50
2023-01-18T08:56:18.546Z,24.83
2023-01-18T08:58:51.751Z,22.00
2023-01-18T09:01:20.393Z,22.83
2023-01-18T09:03:50.485Z,22.07
2023-01-18T09:06:18.988Z,23.67
2023-01-18T09:08:48.938Z,23.30
2023-01-18T09:11:18.838Z,25.97
2023-01-18T09:14:00.180Z,20.43
2023-01-18T09:16:29.460Z,23.27
2023-01-18T09:18:58.451Z,25.47
2023-01-18T09:21:29.368Z,20.27
2023-01-18T09:23:59.479Z,18.27
2023-01-18T09:26:30.762Z,19.50
2023-01-18T09:29:00.514Z,17.37
2023-01-18T09:31:30.751Z,18.30
2023-01-18T09:34:18.125Z,16.23
2023-01-18T09:36:50.318Z,18.50
2023-01-18T09:39:19.237Z,16.17
2023-01-18T09:41:53.588Z,19.30
2023-01-18T09:44:30.068Z,14.27
2023-01-18T09:47:03.314Z,12.90
2023-01-18T09:49:38.178Z,13.03
2023-01-18T09:52:22.618Z,11.70
2023-01-18T09:54:58.476Z,11.77
2023-01-18T09:57:40.499Z,11.47
2023-01-18T10:00:21.716Z,14.87
2023-01-18T10:02:53.819Z,11.97
2023-01-18T10:05:25.028Z,9.23
2023-01-18T10:08:04.191Z,11.53
2023-01-18T10:10:40.747Z,8.73
2023-01-18T10:13:39.238Z,9.53
2023-01-18T10:16:15.531Z,6.30
2023-01-18T10:18:48.284Z,8.03
2023-01-18T10:21:33.796Z,8.33
2023-01-18T10:24:37.517Z,9.33
2023-01-18T10:27:23.438Z,7.50
2023-01-18T10:30:08.990Z,10.37
2023-01-18T10:32:40.808Z,14.13
2023-01-18T10:35:16.886Z,12.50
2023-01-18T10:37:46.678Z,9.33
2023-01-18T10:46:59.598Z,15.03
2023-01-18T10:49:38.352Z,14.67
2023-01-18T10:52:28.468Z,8.83
2023-01-18T10:55:02.451Z,8.57
2023-01-18T10:57:33.676Z,8.07
2023-01-18T11:00:03.076Z,8.73
2023-01-18T11:02:36.726Z,7.67
2023-01-18T11:05:22.563Z,8.27
2023-01-18T11:08:15.602Z,8.83
2023-01-18T11:10:44.764Z,8.40
2023-01-18T11:13:27.768Z,9.43
2023-01-18T11:16:10.519Z,7.80
2023-01-18T11:18:40.286Z,5.83
2023-01-18T11:21:12.601Z,7.70
2023-01-18T11:23:43.833Z,8.70
2023-01-18T11:26:17.519Z,10.07
2023-01-18T11:28:49.598Z,8.67
2023-01-18T11:31:22.324Z,6.83
2023-01-18T11:33:53.816Z,6.30
2023-01-18T11:36:37.328Z,6.73
2023-01-18T11:39:26.082Z,8.73
2023-01-18T11:42:15.891Z,21.87
2023-01-18T11:44:49.486Z,17.13
2023-01-18T11:47:22.812Z,10.27
2023-01-18T11:49:58.857Z,7.83
2023-01-18T11:52:42.315Z,8.37
2023-01-18T11:55:23.790Z,5.50
2023-01-18T11:57:55.937Z,8.77
2023-01-18T12:00:28.137Z,6.67
2023-01-18T12:03:14.084Z,6.83
2023-01-18T12:05:50.122Z,7.33
2023-01-18T12:08:41.977Z,4.30
2023-01-18T12:11:21.435Z,7.17
2023-01-18T12:13:59.936Z,9.10
2023-01-18T12:16:44.905Z,8.37
2023-01-18T12:19:45.879Z,8.20
2023-01-18T12:22:37.300Z,5.87
2023-01-18T12:25:22.486Z,7.17
2023-01-18T12:28:00.692Z,11.00
2023-01-18T12:30:41.907Z,7.53
2023-01-18T12:33:21.461Z,4.27
2023-01-18T12:36:13.663Z,5.33
2023-01-18T12:38:46.627Z,6.43
2023-01-18T12:41:47.874Z,4.43
2023-01-18T12:44:43.600Z,4.57
2023-01-18T12:47:31.189Z,4.47
2023-01-18T12:50:00.814Z,7.40
2023-01-18T12:52:31.275Z,5.60
2023-01-18T12:55:02.802Z,8.90
2023-01-18T12:57:33.308Z,4.63
2023-01-18T13:00:09.343Z,8.23
2023-01-18T13:02:41.773Z,7.10
2023-01-18T13:05:19.199Z,4.73
2023-01-18T13:07:52.604Z,9.97
2023-01-18T13:10:24.448Z,5.40
2023-01-18T13:12:56.467Z,8.40
2023-01-18T13:15:34.395Z,2.50
2023-01-18T13:18:11.740Z,3.17
2023-01-18T13:21:03.530Z,5.20
2023-01-18T13:23:39.663Z,6.87
2023-01-18T13:26:21.067Z,5.00
2023-01-18T13:29:08.206Z,4.37
2023-01-18T13:31:36.956Z,8.87
2023-01-18T13:34:05.976Z,2.87
2023-01-18T13:36:45.735Z,12.23
2023-01-18T13:39:16.897Z,2.23
2023-01-18T13:42:17.794Z,3.83
2023-01-18T13:44:50.106Z,5.67
2023-01-18T13:47:45.892Z,2.17
2023-01-18T13:50:47.435Z,1.60
2023-01-18T13:53:31.622Z,4.23
2023-01-18T13:56:27.697Z,76.40
2023-01-18T13:59:00.684Z,28.30
2023-01-18T14:01:34.616Z,5.83
2023-01-18T14:04:23.818Z,5.00
2023-01-18T14:06:54.275Z,24.37
2023-01-18T14:09:36.431Z,20.07
2023-01-18T14:12:06.723Z,10.97
2023-01-18T14:14:37.297Z,5.57
2023-01-18T14:17:15.301Z,3.70
2023-01-18T14:20:16.622Z,7.47
2023-01-18T14:23:01.140Z,4.83
2023-01-18T14:25:50.680Z,4.80
2023-01-18T14:28:23.453Z,1.83
2023-01-18T14:30:58.832Z,5.13
2023-01-18T14:33:33.729Z,3.77
2023-01-18T14:36:03.922Z,5.17
2023-01-18T14:38:32.645Z,4.43
2023-01-18T14:41:05.749Z,7.77
2023-01-18T14:43:36.526Z,3.63
2023-01-18T14:46:11.350Z,6.40
2023-01-18T14:48:47.975Z,11.23
2023-01-18T14:51:19.835Z,2.90
2023-01-18T14:53:52.904Z,5.50
2023-01-18T14:56:24.013Z,7.27
2023-01-18T14:58:54.648Z,5.43
2023-01-18T15:01:30.963Z,7.33
2023-01-18T15:04:02.428Z,5.87
2023-01-18T15:06:38.991Z,4.33
2023-01-18T15:09:09.160Z,6.53
2023-01-18T15:11:39.114Z,5.57
2023-01-18T15:14:13.288Z,4.07
2023-01-18T15:16:42.155Z,6.90
2023-01-18T15:19:17.108Z,8.50
2023-01-18T15:21:46.113Z,8.33
2023-01-18T15:24:18.834Z,4.47
2023-01-18T15:26:51.494Z,6.30
2023-01-18T15:29:25.941Z,4.63
2023-01-18T15:31:57.282Z,7.50
2023-01-18T15:34:31.135Z,5.20
2023-01-18T15:37:02.234Z,6.03
2023-01-18T15:39:32.514Z,5.73
2023-01-18T15:42:06.811Z,9.97
2023-01-18T15:44:42.253Z,6.83
2023-01-18T15:47:22.919Z,25.23
2023-01-18T15:49:54.474Z,18.90
2023-01-18T15:52:38.954Z,9.90
2023-01-18T15:55:14.447Z,7.03
2023-01-18T15:57:43.589Z,3.00
2023-01-18T16:00:28.176Z,4.17
2023-01-18T16:02:57.059Z,7.87
2023-01-18T16:05:27.869Z,7.53
2023-01-18T16:08:18.576Z,6.33
2023-01-18T16:10:53.162Z,7.03
2023-01-18T16:13:32.298Z,8.40
2023-01-18T16:16:18.387Z,7.77
2023-01-18T16:18:49.527Z,7.57
2023-01-18T16:21:28.924Z,6.57
2023-01-18T16:23:58.818Z,10.23
2023-01-18T16:26:31.293Z,4.63
2023-01-18T16:29:09.586Z,9.70
2023-01-18T16:31:41.729Z,5.20
2023-01-18T16:34:24.096Z,6.90
2023-01-18T16:36:54.719Z,7.87
2023-01-18T16:39:24.665Z,7.63
2023-01-18T16:41:57.198Z,8.20
2023-01-18T16:44:27.604Z,7.77
2023-01-18T16:49:34.429Z,8.70
2023-01-18T16:52:08.384Z,8.97
2023-01-18T16:54:36.841Z,11.47
2023-01-18T16:57:05.276Z,6.27
2023-01-18T16:59:33.729Z,8.57
2023-01-18T17:02:02.390Z,8.23
2023-01-18T17:04:30.839Z,9.47
2023-01-18T17:06:59.200Z,8.50
2023-01-18T17:09:40.492Z,8.97
2023-01-18T17:12:16.020Z,11.93
2023-01-18T17:14:44.444Z,10.63
2023-01-18T17:17:13.187Z,6.93
2023-01-18T17:19:41.903Z,7.93
2023-01-18T17:22:10.394Z,9.47
2023-01-18T17:24:41.809Z,9.53
2023-01-18T17:27:14.765Z,10.90
2023-01-18T17:29:43.883Z,10.33
2023-01-18T17:32:15.944Z,6.93
2023-01-18T17:34:44.437Z,9.33
2023-01-18T17:37:13.347Z,7.83
2023-01-18T17:39:54.867Z,7.07
2023-01-18T17:42:30.982Z,8.90
2023-01-18T17:45:04.624Z,8.50
2023-01-18T17:47:34.698Z,14.60
2023-01-18T17:50:08.879Z,10.23
2023-01-18T17:52:39.195Z,9.67
2023-01-18T17:55:15.167Z,10.00
2023-01-18T17:57:44.851Z,9.37
2023-01-18T18:00:16.411Z,13.37
2023-01-18T18:02:46.328Z,9.93
2023-01-18T18:05:14.956Z,13.73
2023-01-18T18:07:44.609Z,12.17
2023-01-18T18:10:16.395Z,10.60
2023-01-18T18:12:44.971Z,8.80
2023-01-18T18:15:16.300Z,13.87
2023-01-18T18:17:44.648Z,13.80
2023-01-18T18:20:13.364Z,13.20
2023-01-18T18:22:42.165Z,10.20
2023-01-18T18:25:11.158Z,12.10
2023-01-18T18:27:45.857Z,9.80
2023-01-18T18:30:17.647Z,11.13
2023-01-18T18:32:46.006Z,11.17
2023-01-18T18:35:25.044Z,10.30
2023-01-18T18:37:55.656Z,10.27
2023-01-18T18:40:25.195Z,9.50
2023-01-18T18:43:02.445Z,9.93
2023-01-18T18:45:32.594Z,9.23
2023-01-18T18:48:01.455Z,8.83
2023-01-18T18:50:31.227Z,11.83
2023-01-18T18:53:00.468Z,9.97
2023-01-18T18:55:29.343Z,12.70
2023-01-18T18:58:00.515Z,9.37
2023-01-18T19:00:28.851Z,11.07
2023-01-18T19:03:02.591Z,10.40
2023-01-18T19:05:32.229Z,10.30
2023-01-18T19:08:02.706Z,14.20
2023-01-18T19:10:31.362Z,11.00
2023-01-18T19:13:03.135Z,14.10
2023-01-18T19:15:31.937Z,11.10
2023-01-18T19:18:00.916Z,12.97
2023-01-18T19:20:29.546Z,11.03
2023-01-18T19:22:58.653Z,11.73
2023-01-18T19:25:27.326Z,14.97
2023-01-18T19:27:55.777Z,17.23
2023-01-18T19:30:25.548Z,12.93
2023-01-18T19:32:54.194Z,12.47
2023-01-18T19:35:22.910Z,14.53
2023-01-18T19:37:51.296Z,11.33
2023-01-18T19:40:20.112Z,15.70
2023-01-18T19:42:54.852Z,13.30
2023-01-18T19:45:28.983Z,12.20
2023-01-18T19:47:59.718Z,14.07
2023-01-18T19:50:30.035Z,13.23
2023-01-18T19:52:59.048Z,15.27
2023-01-18T19:55:27.982Z,14.37
2023-01-18T19:57:58.284Z,17.00
2023-01-18T20:00:30.029Z,15.23
2023-01-18T20:02:59.615Z,15.10
2023-01-18T20:05:29.940Z,14.57
2023-01-18T20:07:58.329Z,15.53
2023-01-18T20:10:26.723Z,18.03
2023-01-18T20:12:56.386Z,19.20
2023-01-18T20:15:26.142Z,17.07
2023-01-18T20:17:56.065Z,15.90
2023-01-18T20:20:32.455Z,19.07
2023-01-18T20:23:04.343Z,16.50
2023-01-18T20:25:33.456Z,17.40
2023-01-18T20:28:02.929Z,20.53
2023-01-18T20:30:31.359Z,19.80
2023-01-18T20:33:02.213Z,18.87
2023-01-18T20:35:31.325Z,18.13
2023-01-18T20:37:59.973Z,18.10
2023-01-18T20:40:29.442Z,18.20
2023-01-18T20:42:58.241Z,18.90
2023-01-18T20:45:27.122Z,17.80
2023-01-18T20:47:55.506Z,20.67
2023-01-18T20:50:25.322Z,19.00
2023-01-18T20:52:54.950Z,17.97
2023-01-18T20:55:23.899Z,19.53
2023-01-18T20:57:54.635Z,21.57
2023-01-18T21:00:23.858Z,21.63
2023-01-18T21:02:52.447Z,23.27
2023-01-18T21:05:21.213Z,18.57
2023-01-18T21:07:50.999Z,19.67
2023-01-18T21:10:19.550Z,20.20
2023-01-18T21:12:49.092Z,20.27
2023-01-18T21:15:17.675Z,22.50
2023-01-18T21:17:46.104Z,20.73
2023-01-18T21:20:15.033Z,23.60
2023-01-18T21:22:44.065Z,18.67
2023-01-18T21:25:13.806Z,22.23
2023-01-18T21:27:43.683Z,20.60
2023-01-18T21:30:13.941Z,22.37
2023-01-18T21:32:43.163Z,24.33
2023-01-18T21:35:11.862Z,18.97
2023-01-18T21:37:40.634Z,22.83
2023-01-18T21:40:10.708Z,20.27
2023-01-18T21:42:57.232Z,20.47
2023-01-18T21:45:43.608Z,21.73
2023-01-18T21:48:12.034Z,21.57
2023-01-18T21:50:59.692Z,17.67
2023-01-18T21:53:46.771Z,18.23
2023-01-18T21:56:15.344Z,17.93
2023-01-18T21:58:54.295Z,18.80
2023-01-18T22:01:24.913Z,19.00
2023-01-18T22:04:11.867Z,21.37
2023-01-18T22:06:40.750Z,16.40
2023-01-18T22:09:09.369Z,17.97
2023-01-18T22:11:37.863Z,19.60
2023-01-18T22:14:09.563Z,19.00
2023-01-18T22:16:38.665Z,21.13
2023-01-18T22:19:07.204Z,14.00
2023-01-18T22:21:35.608Z,18.00
2023-01-18T22:24:04.288Z,16.03
2023-01-18T22:26:34.259Z,17.57
2023-01-18T22:29:09.459Z,14.87
2023-01-18T22:31:38.201Z,18.07
2023-01-18T22:34:07.002Z,16.70
2023-01-18T22:36:35.647Z,14.27
2023-01-18T22:39:04.275Z,16.37
2023-01-18T22:41:32.723Z,17.97
2023-01-18T22:44:02.369Z,15.80
2023-01-18T22:46:32.132Z,13.83
2023-01-18T22:49:00.683Z,18.50
2023-01-18T22:51:29.619Z,14.13
2023-01-18T22:53:57.934Z,14.17
2023-01-18T22:56:27.090Z,14.13
2023-01-18T22:58:55.428Z,15.80
2023-01-18T23:01:26.174Z,16.53
2023-01-18T23:03:58.149Z,14.00
2023-01-18T23:06:28.214Z,13.60
2023-01-18T23:08:57.218Z,16.40
2023-01-18T23:11:27.495Z,15.57
2023-01-18T23:14:17.554Z,15.47
2023-01-18T23:17:03.787Z,16.17
2023-01-18T23:19:34.593Z,16.13
2023-01-18T23:22:07.067Z,16.50
2023-01-18T23:24:37.799Z,15.40
2023-01-18T23:27:07.575Z,18.30
2023-01-18T23:29:36.343Z,13.53
2023-01-18T23:32:05.056Z,13.57
2023-01-18T23:34:34.846Z,16.10
2023-01-18T23:37:03.333Z,17.93
2023-01-18T23:39:49.109Z,12.57
2023-01-18T23:42:34.701Z,14.97
2023-01-18T23:45:20.596Z,17.27
2023-01-18T23:48:06.129Z,15.90
2023-01-18T23:50:53.583Z,14.03
2023-01-18T23:53:40.346Z,17.03
2023-01-18T23:56:09.050Z,20.60
2023-01-18T23:58:39.355Z,17.43
